Time;durP1;ratioP1;P1;durP2;ratioP2;P2;SDS_P1;SDS_P2;PMS_P1;PMS_P2;Temp;Humidity;BMP_temperature;BMP_pressure;BME280_temperature;BME280_humidity;BME280_pressure;Samples;Min_cycle;Max_cycle;Signal;HPM_P1;HPM_P2
2023/01/08 00:00:09;;;;;;;0.00;0.00;;;;;;;;;;1724685;28;20757;-64
2023/01/08 00:01:03;;;;;;;0.00;0.00;;;;;;;;;;1721874;28;20235;-65
2023/01/08 00:01:55;;;;;;;0.00;0.00;;;;;;;;;;1721538;28;20271;-66
2023/01/08 00:02:48;;;;;;;0.00;0.00;;;;;;;;;;1722732;28;20250;-65
2023/01/08 00:03:40;;;;;;;0.00;0.00;;;;;;;;;;1718402;28;20209;-65
2023/01/08 00:04:31;;;;;;;0.00;0.00;;;;;;;;;;1720290;28;20299;-66
2023/01/08 00:05:23;;;;;;;0.00;0.00;;;;;;;;;;1720072;28;20205;-66
2023/01/08 00:06:16;;;;;;;0.00;0.00;;;;;;;;;;1719057;28;20727;-66
2023/01/08 00:07:07;;;;;;;0.00;0.00;;;;;;;;;;1722040;28;20250;-66
2023/01/08 00:08:00;;;;;;;0.00;0.00;;;;;;;;;;1721009;28;20228;-64
2023/01/08 00:08:52;;;;;;;0.00;0.00;;;;;;;;;;1720057;28;20209;-66
2023/01/08 00:09:43;;;;;;;0.00;0.00;;;;;;;;;;1721902;28;20703;-66
2023/01/08 00:10:35;;;;;;;0.00;0.00;;;;;;;;;;1721759;28;20635;-66
2023/01/08 00:11:26;;;;;;;0.00;0.00;;;;;;;;;;1726419;28;20293;-66
2023/01/08 00:12:18;;;;;;;0.00;0.00;;;;;;;;;;1728454;28;20196;-65
2023/01/08 00:13:09;;;;;;;0.00;0.00;;;;;;;;;;1729686;28;20625;-66
2023/01/08 00:14:01;;;;;;;0.00;0.00;;;;;;;;;;1725515;28;20711;-65
2023/01/08 00:14:52;;;;;;;0.00;0.00;;;;;;;;;;1730475;28;20310;-63
2023/01/08 00:15:44;;;;;;;0.00;0.00;;;;;;;;;;1727988;28;20231;-63
2023/01/08 00:16:35;;;;;;;0.00;0.00;;;;;;;;;;1727002;28;20254;-63
2023/01/08 00:17:27;;;;;;;0.00;0.00;;;;;;;;;;1729949;28;20203;-63
2023/01/08 00:18:19;;;;;;;0.00;0.00;;;;;;;;;;1730248;28;20810;-63
2023/01/08 00:19:11;;;;;;;0.00;0.00;;;;;;;;;;1726229;28;20673;-63
2023/01/08 00:20:02;;;;;;;0.00;0.00;;;;;;;;;;1726066;28;20222;-63
2023/01/08 00:20:54;;;;;;;0.00;0.00;;;;;;;;;;1727603;28;20229;-63
2023/01/08 00:21:45;;;;;;;0.00;0.00;;;;;;;;;;1726602;28;20212;-63
2023/01/08 00:22:37;;;;;;;0.00;0.00;;;;;;;;;;1731117;28;20229;-65
2023/01/08 00:23:30;;;;;;;0.00;0.00;;;;;;;;;;1725390;28;20268;-63
2023/01/08 00:24:22;;;;;;;0.00;0.00;;;;;;;;;;1726428;28;20219;-63
2023/01/08 00:25:13;;;;;;;0.00;0.00;;;;;;;;;;1728161;28;20284;-62
2023/01/08 00:26:06;;;;;;;0.00;0.00;;;;;;;;;;1728228;28;20228;-63
2023/01/08 00:26:57;;;;;;;0.00;0.00;;;;;;;;;;1729133;28;20265;-63
2023/01/08 00:27:49;;;;;;;0.00;0.00;;;;;;;;;;1728767;28;20236;-66
2023/01/08 00:28:41;;;;;;;0.00;0.00;;;;;;;;;;1726297;28;20663;-63
2023/01/08 00:29:32;;;;;;;0.00;0.00;;;;;;;;;;1727107;28;20219;-63
2023/01/08 00:30:23;;;;;;;0.00;0.00;;;;;;;;;;1729962;28;20237;-63
2023/01/08 00:31:15;;;;;;;0.00;0.00;;;;;;;;;;1728845;28;20201;-63
2023/01/08 00:32:06;;;;;;;0.00;0.00;;;;;;;;;;1732003;28;20674;-63
2023/01/08 00:32:58;;;;;;;0.00;0.00;;;;;;;;;;1729536;28;20686;-63
2023/01/08 00:33:49;;;;;;;0.00;0.00;;;;;;;;;;1732286;28;20212;-66
2023/01/08 00:34:41;;;;;;;0.00;0.00;;;;;;;;;;1730830;28;20211;-64
2023/01/08 00:35:32;;;;;;;0.00;0.00;;;;;;;;;;1730008;28;20235;-64
2023/01/08 00:36:24;;;;;;;0.00;0.00;;;;;;;;;;1729003;28;20257;-64
2023/01/08 00:37:17;;;;;;;0.00;0.00;;;;;;;;;;1731891;28;20333;-64
2023/01/08 00:38:09;;;;;;;0.00;0.00;;;;;;;;;;1726541;28;20410;-64
2023/01/08 00:39:02;;;;;;;0.00;0.00;;;;;;;;;;1725058;28;20695;-62
2023/01/08 00:39:54;;;;;;;0.00;0.00;;;;;;;;;;1730603;28;20670;-63
2023/01/08 00:40:45;;;;;;;0.00;0.00;;;;;;;;;;1729958;28;20714;-64
2023/01/08 00:41:37;;;;;;;0.00;0.00;;;;;;;;;;1727071;28;20216;-64
2023/01/08 00:42:28;;;;;;;0.00;0.00;;;;;;;;;;1727670;28;20307;-64
2023/01/08 00:43:20;;;;;;;0.00;0.00;;;;;;;;;;1728691;28;20199;-63
2023/01/08 00:44:11;;;;;;;0.00;0.00;;;;;;;;;;1726310;28;20619;-64
2023/01/08 00:45:03;;;;;;;0.00;0.00;;;;;;;;;;1726028;28;20204;-63
2023/01/08 00:45:54;;;;;;;0.00;0.00;;;;;;;;;;1723329;28;20270;-63
2023/01/08 00:46:46;;;;;;;0.00;0.00;;;;;;;;;;1727712;28;20254;-64
2023/01/08 00:47:37;;;;;;;0.00;0.00;;;;;;;;;;1728597;28;20266;-63
2023/01/08 00:48:29;;;;;;;0.00;0.00;;;;;;;;;;1729557;28;20203;-64
2023/01/08 00:49:21;;;;;;;0.00;0.00;;;;;;;;;;1726949;28;20212;-63
2023/01/08 00:50:12;;;;;;;0.00;0.00;;;;;;;;;;1730992;28;20200;-62
2023/01/08 00:51:04;;;;;;;0.00;0.00;;;;;;;;;;1725751;28;20231;-63
2023/01/08 00:51:56;;;;;;;0.00;0.00;;;;;;;;;;1728412;28;20270;-64
2023/01/08 00:52:47;;;;;;;0.00;0.00;;;;;;;;;;1729570;28;20678;-64
2023/01/08 00:53:39;;;;;;;0.00;0.00;;;;;;;;;;1727090;28;20290;-64
2023/01/08 00:54:32;;;;;;;0.00;0.00;;;;;;;;;;1727645;28;20261;-64
2023/01/08 00:55:24;;;;;;;0.00;0.00;;;;;;;;;;1727464;28;20269;-63
2023/01/08 00:56:15;;;;;;;0.00;0.00;;;;;;;;;;1728710;28;20204;-64
2023/01/08 00:57:07;;;;;;;0.00;0.00;;;;;;;;;;1728874;28;20456;-64
2023/01/08 00:57:58;;;;;;;0.00;0.00;;;;;;;;;;1727868;28;20240;-64
2023/01/08 00:58:50;;;;;;;0.00;0.00;;;;;;;;;;1724802;28;20205;-64
2023/01/08 00:59:41;;;;;;;0.00;0.00;;;;;;;;;;1724801;28;20729;-64
2023/01/08 01:00:33;;;;;;;0.00;0.00;;;;;;;;;;1724323;28;20622;-64
2023/01/08 01:01:24;;;;;;;0.00;0.00;;;;;;;;;;1726789;28;20208;-64
2023/01/08 01:02:16;;;;;;;0.00;0.00;;;;;;;;;;1727809;28;20200;-64
2023/01/08 01:03:07;;;;;;;0.00;0.00;;;;;;;;;;1726614;28;20278;-64
2023/01/08 01:03:59;;;;;;;0.00;0.00;;;;;;;;;;1725608;28;20643;-63
2023/01/08 01:04:50;;;;;;;0.00;0.00;;;;;;;;;;1726188;28;20216;-64
2023/01/08 01:05:42;;;;;;;0.00;0.00;;;;;;;;;;1724021;28;20290;-63
2023/01/08 01:06:33;;;;;;;0.00;0.00;;;;;;;;;;1726633;28;20759;-64
2023/01/08 01:07:24;;;;;;;0.00;0.00;;;;;;;;;;1730416;28;20618;-64
2023/01/08 01:08:16;;;;;;;0.00;0.00;;;;;;;;;;1728195;28;20211;-63
2023/01/08 01:09:08;;;;;;;0.00;0.00;;;;;;;;;;1728178;28;20196;-63
2023/01/08 01:10:00;;;;;;;0.00;0.00;;;;;;;;;;1725905;28;20240;-63
2023/01/08 01:10:53;;;;;;;0.00;0.00;;;;;;;;;;1727831;28;20235;-63
2023/01/08 01:11:44;;;;;;;0.00;0.00;;;;;;;;;;1731201;28;20212;-63
2023/01/08 01:12:37;;;;;;;0.00;0.00;;;;;;;;;;1727029;28;20203;-63
2023/01/08 01:13:28;;;;;;;0.00;0.00;;;;;;;;;;1729732;28;20215;-63
2023/01/08 01:14:20;;;;;;;0.00;0.00;;;;;;;;;;1726526;28;20207;-63
2023/01/08 01:15:12;;;;;;;0.00;0.00;;;;;;;;;;1730999;28;20637;-62
2023/01/08 01:16:04;;;;;;;0.00;0.00;;;;;;;;;;1729024;28;20255;-63
2023/01/08 01:16:55;;;;;;;0.00;0.00;;;;;;;;;;1728560;28;20548;-63
2023/01/08 01:17:47;;;;;;;0.00;0.00;;;;;;;;;;1724953;28;20232;-63
2023/01/08 01:18:38;;;;;;;0.00;0.00;;;;;;;;;;1725005;28;20281;-63
2023/01/08 01:19:31;;;;;;;0.00;0.00;;;;;;;;;;1726721;28;20211;-63
2023/01/08 01:20:22;;;;;;;0.00;0.00;;;;;;;;;;1729588;28;20293;-63
2023/01/08 01:21:19;;;;;;;0.00;0.00;;;;;;;;;;1728027;28;20188;-63
2023/01/08 01:22:10;;;;;;;0.00;0.00;;;;;;;;;;1726094;28;20200;-63
2023/01/08 01:23:02;;;;;;;0.00;0.00;;;;;;;;;;1729217;28;20262;-63
2023/01/08 01:23:53;;;;;;;0.00;0.00;;;;;;;;;;1725201;28;20723;-64
2023/01/08 01:24:45;;;;;;;0.00;0.00;;;;;;;;;;1727853;28;20239;-63
2023/01/08 01:25:38;;;;;;;0.00;0.00;;;;;;;;;;1729431;28;20291;-63
2023/01/08 01:26:30;;;;;;;0.00;0.00;;;;;;;;;;1726680;28;20212;-63
2023/01/08 01:27:21;;;;;;;0.00;0.00;;;;;;;;;;1730312;28;20265;-63
2023/01/08 01:28:13;;;;;;;0.00;0.00;;;;;;;;;;1727999;28;20215;-63
2023/01/08 01:29:04;;;;;;;0.00;0.00;;;;;;;;;;1726102;28;20204;-62
2023/01/08 01:29:56;;;;;;;0.00;0.00;;;;;;;;;;1726291;28;20698;-63
2023/01/08 01:30:52;;;;;;;0.00;0.00;;;;;;;;;;1723549;28;20236;-63
2023/01/08 01:31:44;;;;;;;0.00;0.00;;;;;;;;;;1731451;28;20517;-64
2023/01/08 01:32:35;;;;;;;0.00;0.00;;;;;;;;;;1728973;28;20274;-63
2023/01/08 01:33:26;;;;;;;0.00;0.00;;;;;;;;;;1729721;28;20728;-63
2023/01/08 01:34:18;;;;;;;0.00;0.00;;;;;;;;;;1724771;28;20284;-63
2023/01/08 01:35:09;;;;;;;0.00;0.00;;;;;;;;;;1731122;28;20262;-61
2023/01/08 01:36:02;;;;;;;0.00;0.00;;;;;;;;;;1727656;28;20276;-63
2023/01/08 01:36:53;;;;;;;0.00;0.00;;;;;;;;;;1727942;28;20630;-64
2023/01/08 01:37:45;;;;;;;0.00;0.00;;;;;;;;;;1727137;28;20623;-63
2023/01/08 01:38:36;;;;;;;0.00;0.00;;;;;;;;;;1728162;28;20299;-63
2023/01/08 01:39:28;;;;;;;0.00;0.00;;;;;;;;;;1727189;28;20212;-64
2023/01/08 01:40:19;;;;;;;0.00;0.00;;;;;;;;;;1727302;28;20199;-63
2023/01/08 01:41:16;;;;;;;0.00;0.00;;;;;;;;;;1728428;28;20598;-63
2023/01/08 01:42:38;;;;;;;0.00;0.00;;;;;;;;;;1724842;28;20196;-63
2023/01/08 01:43:37;;;;;;;0.00;0.00;;;;;;;;;;1729779;28;20210;-63
2023/01/08 01:44:40;;;;;;;0.00;0.00;;;;;;;;;;1726339;28;20205;-63
2023/01/08 01:45:31;;;;;;;0.00;0.00;;;;;;;;;;1729678;28;20232;-63
2023/01/08 01:46:27;;;;;;;0.00;0.00;;;;;;;;;;1726266;28;20663;-63
2023/01/08 01:47:20;;;;;;;0.00;0.00;;;;;;;;;;1728939;28;20195;-63
2023/01/08 01:48:14;;;;;;;0.00;0.00;;;;;;;;;;1725029;28;20220;-64
2023/01/08 01:49:08;;;;;;;0.00;0.00;;;;;;;;;;1725704;28;20675;-63
2023/01/08 01:50:02;;;;;;;0.00;0.00;;;;;;;;;;1731144;28;20687;-64
2023/01/08 01:50:53;;;;;;;0.00;0.00;;;;;;;;;;1722717;28;20642;-63
2023/01/08 01:51:47;;;;;;;0.00;0.00;;;;;;;;;;1727710;28;20227;-64
2023/01/08 01:52:40;;;;;;;0.00;0.00;;;;;;;;;;1728793;28;20212;-63
2023/01/08 01:53:34;;;;;;;0.00;0.00;;;;;;;;;;1729085;28;20203;-64
2023/01/08 01:54:25;;;;;;;0.00;0.00;;;;;;;;;;1726137;28;20240;-64
2023/01/08 01:55:18;;;;;;;0.00;0.00;;;;;;;;;;1730219;28;20199;-62
2023/01/08 01:56:09;;;;;;;0.00;0.00;;;;;;;;;;1721880;28;20655;-63
2023/01/08 01:57:03;;;;;;;0.00;0.00;;;;;;;;;;1721659;28;20204;-63
2023/01/08 01:57:58;;;;;;;0.00;0.00;;;;;;;;;;1720474;28;20541;-64
2023/01/08 01:58:50;;;;;;;0.00;0.00;;;;;;;;;;1719500;28;20597;-64
2023/01/08 01:59:41;;;;;;;0.00;0.00;;;;;;;;;;1720647;28;20670;-64
2023/01/08 02:00:33;;;;;;;0.00;0.00;;;;;;;;;;1718652;28;20228;-64
2023/01/08 02:01:24;;;;;;;0.00;0.00;;;;;;;;;;1719072;28;20952;-64
2023/01/08 02:02:16;;;;;;;0.00;0.00;;;;;;;;;;1722200;28;20481;-63
2023/01/08 02:03:09;;;;;;;0.00;0.00;;;;;;;;;;1722026;28;20693;-64
2023/01/08 02:04:01;;;;;;;0.00;0.00;;;;;;;;;;1718819;28;20205;-63
2023/01/08 02:04:52;;;;;;;0.00;0.00;;;;;;;;;;1723196;28;20212;-64
2023/01/08 02:05:47;;;;;;;0.00;0.00;;;;;;;;;;1715428;28;20278;-64
2023/01/08 02:06:41;;;;;;;0.00;0.00;;;;;;;;;;1719856;28;20601;-64
2023/01/08 02:07:38;;;;;;;0.00;0.00;;;;;;;;;;1720546;28;20916;-64
2023/01/08 02:08:32;;;;;;;0.00;0.00;;;;;;;;;;1722534;28;20212;-64
2023/01/08 02:09:32;;;;;;;0.00;0.00;;;;;;;;;;1719087;28;20304;-64
2023/01/08 02:10:30;;;;;;;0.00;0.00;;;;;;;;;;1719830;28;20197;-63
2023/01/08 02:11:24;;;;;;;0.00;0.00;;;;;;;;;;1719891;28;20507;-64
2023/01/08 02:12:19;;;;;;;0.00;0.00;;;;;;;;;;1723284;28;20769;-63
2023/01/08 02:13:14;;;;;;;0.00;0.00;;;;;;;;;;1722628;28;20200;-63
2023/01/08 02:14:07;;;;;;;0.00;0.00;;;;;;;;;;1723284;28;20212;-61
2023/01/08 02:15:05;;;;;;;0.00;0.00;;;;;;;;;;1723850;28;20208;-63
2023/01/08 02:15:58;;;;;;;0.00;0.00;;;;;;;;;;1712941;28;20238;-65
2023/01/08 02:16:53;;;;;;;0.00;0.00;;;;;;;;;;1714335;28;20337;-64
2023/01/08 02:17:48;;;;;;;0.00;0.00;;;;;;;;;;1713847;28;20629;-64
2023/01/08 02:18:45;;;;;;;0.00;0.00;;;;;;;;;;1712136;28;20252;-64
2023/01/08 02:19:40;;;;;;;0.00;0.00;;;;;;;;;;1713920;28;21045;-64
2023/01/08 02:20:33;;;;;;;0.00;0.00;;;;;;;;;;1725206;28;20238;-64
2023/01/08 02:21:29;;;;;;;0.00;0.00;;;;;;;;;;1732912;28;20211;-64
2023/01/08 02:22:28;;;;;;;0.00;0.00;;;;;;;;;;1736833;28;20317;-64
2023/01/08 02:23:26;;;;;;;0.00;0.00;;;;;;;;;;1735582;28;20195;-64
2023/01/08 02:24:24;;;;;;;0.00;0.00;;;;;;;;;;1732089;28;20579;-64
2023/01/08 02:25:19;;;;;;;0.00;0.00;;;;;;;;;;1735360;28;20707;-63
2023/01/08 02:26:15;;;;;;;0.00;0.00;;;;;;;;;;1732173;28;20572;-64
2023/01/08 02:27:07;;;;;;;0.00;0.00;;;;;;;;;;1736110;28;20195;-64
2023/01/08 02:28:01;;;;;;;0.00;0.00;;;;;;;;;;1734856;28;20220;-64
2023/01/08 02:28:54;;;;;;;0.00;0.00;;;;;;;;;;1732447;28;20211;-64
2023/01/08 02:29:47;;;;;;;0.00;0.00;;;;;;;;;;1732208;28;20235;-64
2023/01/08 02:30:39;;;;;;;0.00;0.00;;;;;;;;;;1730668;28;20677;-64
2023/01/08 02:31:31;;;;;;;0.00;0.00;;;;;;;;;;1732964;28;20552;-64
2023/01/08 02:32:25;;;;;;;0.00;0.00;;;;;;;;;;1736666;28;20240;-64
2023/01/08 02:33:17;;;;;;;0.00;0.00;;;;;;;;;;1735537;28;20654;-64
2023/01/08 02:34:09;;;;;;;0.00;0.00;;;;;;;;;;1731200;28;20207;-63
2023/01/08 02:35:01;;;;;;;0.00;0.00;;;;;;;;;;1737635;28;20706;-64
2023/01/08 02:35:54;;;;;;;0.00;0.00;;;;;;;;;;1733542;28;20239;-64
2023/01/08 02:36:47;;;;;;;0.00;0.00;;;;;;;;;;1734112;28;20253;-64
2023/01/08 02:37:38;;;;;;;0.00;0.00;;;;;;;;;;1735382;28;20211;-63
2023/01/08 02:38:31;;;;;;;0.00;0.00;;;;;;;;;;1734776;28;20286;-64
2023/01/08 02:39:29;;;;;;;0.00;0.00;;;;;;;;;;1732505;28;20257;-64
2023/01/08 02:40:24;;;;;;;0.00;0.00;;;;;;;;;;1734751;28;20637;-63
2023/01/08 02:41:16;;;;;;;0.00;0.00;;;;;;;;;;1733192;28;20280;-63
2023/01/08 02:42:11;;;;;;;0.00;0.00;;;;;;;;;;1731620;28;20200;-63
2023/01/08 02:43:06;;;;;;;0.00;0.00;;;;;;;;;;1735639;28;20616;-64
2023/01/08 02:43:59;;;;;;;0.00;0.00;;;;;;;;;;1731756;28;20199;-63
2023/01/08 02:44:58;;;;;;;0.00;0.00;;;;;;;;;;1736083;28;20268;-64
2023/01/08 02:45:52;;;;;;;0.00;0.00;;;;;;;;;;1729245;28;20274;-63
2023/01/08 02:46:43;;;;;;;0.00;0.00;;;;;;;;;;1734191;28;20625;-63
2023/01/08 02:47:37;;;;;;;0.00;0.00;;;;;;;;;;1735243;28;20696;-62
2023/01/08 02:48:33;;;;;;;0.00;0.00;;;;;;;;;;1735902;28;20585;-64
2023/01/08 02:49:29;;;;;;;0.00;0.00;;;;;;;;;;1732886;28;20266;-63
2023/01/08 02:50:22;;;;;;;0.00;0.00;;;;;;;;;;1735983;28;20210;-63
2023/01/08 02:51:18;;;;;;;0.00;0.00;;;;;;;;;;1732183;28;20207;-64
2023/01/08 02:52:10;;;;;;;0.00;0.00;;;;;;;;;;1736431;28;20635;-63
2023/01/08 02:53:04;;;;;;;0.00;0.00;;;;;;;;;;1735621;28;20594;-64
2023/01/08 02:53:58;;;;;;;0.00;0.00;;;;;;;;;;1731437;28;20212;-63
2023/01/08 02:54:51;;;;;;;0.00;0.00;;;;;;;;;;1737384;28;20211;-63
2023/01/08 02:55:45;;;;;;;0.00;0.00;;;;;;;;;;1730897;28;20227;-63
2023/01/08 02:56:40;;;;;;;0.00;0.00;;;;;;;;;;1734588;28;20314;-63
2023/01/08 02:57:33;;;;;;;0.00;0.00;;;;;;;;;;1735259;28;20219;-64
2023/01/08 02:58:26;;;;;;;0.00;0.00;;;;;;;;;;1735810;28;20570;-63
2023/01/08 02:59:18;;;;;;;0.00;0.00;;;;;;;;;;1733385;28;20210;-63
2023/01/08 03:00:11;;;;;;;0.00;0.00;;;;;;;;;;1737245;28;20210;-63
2023/01/08 03:01:03;;;;;;;0.00;0.00;;;;;;;;;;1734706;28;20231;-63
2023/01/08 03:01:56;;;;;;;0.00;0.00;;;;;;;;;;1735416;28;20335;-63
2023/01/08 03:02:48;;;;;;;0.00;0.00;;;;;;;;;;1734248;28;20219;-63
2023/01/08 03:03:42;;;;;;;0.00;0.00;;;;;;;;;;1737039;28;20211;-64
2023/01/08 03:04:36;;;;;;;0.00;0.00;;;;;;;;;;1737142;28;20215;-64
2023/01/08 03:05:29;;;;;;;0.00;0.00;;;;;;;;;;1735992;28;20207;-64
2023/01/08 03:06:21;;;;;;;0.00;0.00;;;;;;;;;;1734318;28;20257;-64
2023/01/08 03:07:13;;;;;;;0.00;0.00;;;;;;;;;;1736800;28;20199;-63
2023/01/08 03:08:04;;;;;;;0.00;0.00;;;;;;;;;;1733722;28;20254;-62
2023/01/08 03:08:56;;;;;;;0.00;0.00;;;;;;;;;;1732315;28;20567;-64
2023/01/08 03:09:47;;;;;;;0.00;0.00;;;;;;;;;;1732870;28;20204;-64
2023/01/08 03:10:41;;;;;;;0.00;0.00;;;;;;;;;;1733280;28;20610;-63
2023/01/08 03:11:36;;;;;;;0.00;0.00;;;;;;;;;;1735799;28;20713;-64
2023/01/08 03:12:35;;;;;;;0.00;0.00;;;;;;;;;;1733308;28;20273;-63
2023/01/08 03:13:27;;;;;;;0.00;0.00;;;;;;;;;;1738397;28;20199;-64
2023/01/08 03:14:20;;;;;;;0.00;0.00;;;;;;;;;;1738425;28;20207;-63
2023/01/08 03:15:13;;;;;;;0.00;0.00;;;;;;;;;;1738471;28;20192;-62
2023/01/08 03:16:09;;;;;;;0.00;0.00;;;;;;;;;;1735161;28;20220;-63
2023/01/08 03:17:04;;;;;;;0.00;0.00;;;;;;;;;;1736787;28;20211;-64
2023/01/08 03:17:59;;;;;;;0.00;0.00;;;;;;;;;;1734487;28;20229;-64
2023/01/08 03:18:52;;;;;;;0.00;0.00;;;;;;;;;;1737270;28;20203;-64
2023/01/08 03:19:47;;;;;;;0.00;0.00;;;;;;;;;;1738342;28;20217;-64
2023/01/08 03:20:39;;;;;;;0.00;0.00;;;;;;;;;;1736732;28;20235;-64
2023/01/08 03:21:32;;;;;;;0.00;0.00;;;;;;;;;;1735729;28;20290;-64
2023/01/08 03:22:23;;;;;;;0.00;0.00;;;;;;;;;;1737998;28;20260;-63
2023/01/08 03:23:16;;;;;;;0.00;0.00;;;;;;;;;;1737892;28;20856;-64
2023/01/08 03:24:08;;;;;;;0.00;0.00;;;;;;;;;;1739689;28;20215;-64
2023/01/08 03:25:00;;;;;;;0.00;0.00;;;;;;;;;;1738634;28;20625;-64
2023/01/08 03:25:51;;;;;;;0.00;0.00;;;;;;;;;;1734840;28;20238;-64
2023/01/08 03:26:44;;;;;;;0.00;0.00;;;;;;;;;;1736341;28;20210;-64
2023/01/08 03:27:39;;;;;;;0.00;0.00;;;;;;;;;;1736439;28;20735;-62
2023/01/08 03:28:33;;;;;;;0.00;0.00;;;;;;;;;;1736733;28;20211;-64
2023/01/08 03:29:25;;;;;;;0.00;0.00;;;;;;;;;;1732584;28;20207;-64
2023/01/08 03:30:18;;;;;;;0.00;0.00;;;;;;;;;;1733849;28;20209;-63
2023/01/08 03:31:10;;;;;;;0.00;0.00;;;;;;;;;;1738394;28;20364;-64
2023/01/08 03:32:03;;;;;;;0.00;0.00;;;;;;;;;;1736599;28;20226;-64
2023/01/08 03:32:57;;;;;;;0.00;0.00;;;;;;;;;;1734664;28;20290;-64
2023/01/08 03:33:50;;;;;;;0.00;0.00;;;;;;;;;;1737210;28;20740;-64
2023/01/08 03:34:43;;;;;;;0.00;0.00;;;;;;;;;;1738187;28;20250;-64
2023/01/08 03:35:37;;;;;;;0.00;0.00;;;;;;;;;;1737010;28;20238;-62
2023/01/08 03:36:29;;;;;;;0.00;0.00;;;;;;;;;;1738602;28;20207;-64
2023/01/08 03:37:23;;;;;;;0.00;0.00;;;;;;;;;;1733641;28;20691;-63
2023/01/08 03:38:17;;;;;;;0.00;0.00;;;;;;;;;;1738132;28;20227;-63
2023/01/08 03:39:12;;;;;;;0.00;0.00;;;;;;;;;;1735257;28;20564;-62
2023/01/08 03:40:05;;;;;;;0.00;0.00;;;;;;;;;;1734144;28;20718;-64
2023/01/08 03:40:58;;;;;;;0.00;0.00;;;;;;;;;;1733863;28;20235;-64
2023/01/08 03:41:49;;;;;;;0.00;0.00;;;;;;;;;;1736606;28;20274;-63
2023/01/08 03:42:43;;;;;;;0.00;0.00;;;;;;;;;;1736271;28;20302;-63
2023/01/08 03:43:34;;;;;;;0.00;0.00;;;;;;;;;;1735970;28;20206;-64
2023/01/08 03:44:26;;;;;;;0.00;0.00;;;;;;;;;;1732879;28;20221;-64
2023/01/08 03:45:17;;;;;;;0.00;0.00;;;;;;;;;;1732418;28;20319;-63
2023/01/08 03:46:10;;;;;;;0.00;0.00;;;;;;;;;;1734180;28;20709;-64
2023/01/08 03:47:02;;;;;;;0.00;0.00;;;;;;;;;;1736613;28;20226;-64
2023/01/08 03:47:54;;;;;;;0.00;0.00;;;;;;;;;;1735032;28;20223;-64
2023/01/08 03:48:46;;;;;;;0.00;0.00;;;;;;;;;;1736392;28;20555;-64
2023/01/08 03:49:39;;;;;;;0.00;0.00;;;;;;;;;;1737940;28;20630;-63
2023/01/08 03:50:31;;;;;;;0.00;0.00;;;;;;;;;;1737355;28;20822;-64
2023/01/08 03:51:23;;;;;;;0.00;0.00;;;;;;;;;;1733074;28;20207;-62
2023/01/08 03:52:20;;;;;;;0.00;0.00;;;;;;;;;;1737091;28;20226;-64
2023/01/08 03:53:12;;;;;;;0.00;0.00;;;;;;;;;;1737272;28;20715;-63
2023/01/08 03:54:03;;;;;;;0.00;0.00;;;;;;;;;;1732569;28;20315;-64
2023/01/08 03:54:55;;;;;;;0.00;0.00;;;;;;;;;;1737485;28;20241;-64
2023/01/08 03:55:46;;;;;;;0.00;0.00;;;;;;;;;;1736842;28;20234;-64
2023/01/08 03:56:38;;;;;;;0.00;0.00;;;;;;;;;;1736979;28;20265;-63
2023/01/08 03:57:29;;;;;;;0.00;0.00;;;;;;;;;;1737350;28;21184;-63
2023/01/08 03:58:22;;;;;;;0.00;0.00;;;;;;;;;;1744135;23;20218;-73
2023/01/08 03:59:14;;;;;;;0.00;0.00;;;;;;;;;;1739939;28;20260;-73
2023/01/08 04:00:07;;;;;;;0.00;0.00;;;;;;;;;;1740542;28;20252;-73
2023/01/08 04:00:58;;;;;;;0.00;0.00;;;;;;;;;;1737540;28;20700;-73
2023/01/08 04:01:50;;;;;;;0.00;0.00;;;;;;;;;;1740002;28;20207;-73
2023/01/08 04:02:41;;;;;;;0.00;0.00;;;;;;;;;;1735910;28;20208;-73
2023/01/08 04:03:33;;;;;;;0.00;0.00;;;;;;;;;;1735159;28;20262;-73
2023/01/08 04:04:24;;;;;;;0.00;0.00;;;;;;;;;;1734788;28;20215;-73
2023/01/08 04:05:16;;;;;;;0.00;0.00;;;;;;;;;;1738900;28;20265;-73
2023/01/08 04:06:07;;;;;;;0.00;0.00;;;;;;;;;;1738839;28;20239;-73
2023/01/08 04:06:59;;;;;;;0.00;0.00;;;;;;;;;;1732935;28;20298;-73
2023/01/08 04:07:50;;;;;;;0.00;0.00;;;;;;;;;;1737653;28;20287;-73
2023/01/08 04:08:42;;;;;;;0.00;0.00;;;;;;;;;;1743407;28;20276;-73
2023/01/08 04:09:33;;;;;;;0.00;0.00;;;;;;;;;;1740901;28;20280;-73
2023/01/08 04:10:25;;;;;;;0.00;0.00;;;;;;;;;;1737454;28;20206;-74
2023/01/08 04:11:16;;;;;;;0.00;0.00;;;;;;;;;;1734527;28;20196;-74
2023/01/08 04:12:08;;;;;;;0.00;0.00;;;;;;;;;;1728601;28;20214;-74
2023/01/08 04:12:59;;;;;;;0.00;0.00;;;;;;;;;;1731113;28;20588;-74
2023/01/08 04:13:53;;;;;;;0.00;0.00;;;;;;;;;;1739271;28;20203;-74
2023/01/08 04:14:44;;;;;;;0.00;0.00;;;;;;;;;;1739558;28;20271;-74
2023/01/08 04:15:36;;;;;;;0.00;0.00;;;;;;;;;;1737970;28;20292;-73
2023/01/08 04:16:27;;;;;;;0.00;0.00;;;;;;;;;;1739414;28;20200;-73
2023/01/08 04:17:19;;;;;;;0.00;0.00;;;;;;;;;;1739717;28;20301;-73
2023/01/08 04:18:10;;;;;;;0.00;0.00;;;;;;;;;;1739283;28;20198;-73
2023/01/08 04:19:02;;;;;;;0.00;0.00;;;;;;;;;;1739593;28;20195;-73
2023/01/08 04:19:53;;;;;;;0.00;0.00;;;;;;;;;;1739342;28;20203;-73
2023/01/08 04:20:46;;;;;;;0.00;0.00;;;;;;;;;;1742229;28;20225;-73
2023/01/08 04:21:37;;;;;;;0.00;0.00;;;;;;;;;;1740515;28;20537;-73
2023/01/08 04:22:29;;;;;;;0.00;0.00;;;;;;;;;;1738986;28;20692;-73
2023/01/08 04:23:20;;;;;;;0.00;0.00;;;;;;;;;;1740331;28;20279;-73
2023/01/08 04:24:12;;;;;;;0.00;0.00;;;;;;;;;;1741530;28;20210;-73
2023/01/08 04:25:03;;;;;;;0.00;0.00;;;;;;;;;;1747293;28;20635;-73
2023/01/08 04:25:55;;;;;;;0.00;0.00;;;;;;;;;;1738575;28;20230;-74
2023/01/08 04:26:46;;;;;;;0.00;0.00;;;;;;;;;;1737239;28;20625;-74
2023/01/08 04:27:38;;;;;;;0.00;0.00;;;;;;;;;;1739110;28;20210;-74
2023/01/08 04:28:30;;;;;;;0.00;0.00;;;;;;;;;;1738402;28;20245;-74
2023/01/08 04:29:23;;;;;;;0.00;0.00;;;;;;;;;;1738119;28;20235;-74
2023/01/08 04:30:14;;;;;;;0.00;0.00;;;;;;;;;;1734122;28;20202;-74
2023/01/08 04:31:06;;;;;;;0.00;0.00;;;;;;;;;;1735821;28;20222;-74
2023/01/08 04:31:57;;;;;;;0.00;0.00;;;;;;;;;;1733016;28;20212;-74
2023/01/08 04:32:49;;;;;;;0.00;0.00;;;;;;;;;;1737396;28;20386;-74
2023/01/08 04:33:40;;;;;;;0.00;0.00;;;;;;;;;;1739833;28;20595;-74
2023/01/08 04:34:32;;;;;;;0.00;0.00;;;;;;;;;;1736265;28;20273;-74
2023/01/08 04:35:23;;;;;;;0.00;0.00;;;;;;;;;;1732896;28;20212;-73
2023/01/08 04:36:15;;;;;;;0.00;0.00;;;;;;;;;;1741655;28;20187;-73
2023/01/08 04:37:06;;;;;;;0.00;0.00;;;;;;;;;;1746839;28;20202;-73
2023/01/08 04:37:58;;;;;;;0.00;0.00;;;;;;;;;;1741917;28;20213;-74
2023/01/08 04:38:49;;;;;;;0.00;0.00;;;;;;;;;;1740265;28;20203;-73
2023/01/08 04:39:41;;;;;;;0.00;0.00;;;;;;;;;;1739712;28;20265;-73
2023/01/08 04:40:33;;;;;;;0.00;0.00;;;;;;;;;;1740911;28;20635;-74
2023/01/08 04:41:25;;;;;;;0.00;0.00;;;;;;;;;;1741877;28;20282;-74
2023/01/08 04:42:16;;;;;;;0.00;0.00;;;;;;;;;;1740006;28;20206;-74
2023/01/08 04:43:08;;;;;;;0.00;0.00;;;;;;;;;;1740743;28;20245;-74
2023/01/08 04:43:59;;;;;;;0.00;0.00;;;;;;;;;;1739519;28;20268;-74
2023/01/08 04:44:52;;;;;;;0.00;0.00;;;;;;;;;;1740961;28;20268;-74
2023/01/08 04:45:43;;;;;;;0.00;0.00;;;;;;;;;;1736938;28;20660;-73
2023/01/08 04:46:35;;;;;;;0.00;0.00;;;;;;;;;;1740674;28;20598;-73
2023/01/08 04:47:26;;;;;;;0.00;0.00;;;;;;;;;;1746264;28;20245;-73
2023/01/08 04:48:18;;;;;;;0.00;0.00;;;;;;;;;;1742545;28;20195;-74
2023/01/08 04:49:09;;;;;;;0.00;0.00;;;;;;;;;;1741352;28;20288;-74
2023/01/08 04:50:04;;;;;;;0.00;0.00;;;;;;;;;;1742109;28;20205;-73
2023/01/08 04:50:57;;;;;;;0.00;0.00;;;;;;;;;;1733667;28;20554;-74
2023/01/08 04:51:49;;;;;;;0.00;0.00;;;;;;;;;;1738081;28;20217;-74
2023/01/08 04:52:40;;;;;;;0.00;0.00;;;;;;;;;;1743060;28;20529;-74
2023/01/08 04:53:34;;;;;;;0.00;0.00;;;;;;;;;;1746210;28;20582;-74
2023/01/08 04:54:25;;;;;;;0.00;0.00;;;;;;;;;;1744416;28;20270;-74
2023/01/08 04:55:17;;;;;;;0.00;0.00;;;;;;;;;;1737694;28;20207;-73
2023/01/08 04:56:09;;;;;;;0.00;0.00;;;;;;;;;;1739472;28;20237;-73
2023/01/08 04:57:01;;;;;;;0.00;0.00;;;;;;;;;;1739750;28;20203;-73
2023/01/08 04:57:52;;;;;;;0.00;0.00;;;;;;;;;;1740289;28;20240;-73
2023/01/08 04:58:44;;;;;;;0.00;0.00;;;;;;;;;;1743379;28;20234;-73
2023/01/08 04:59:35;;;;;;;0.00;0.00;;;;;;;;;;1745774;28;20687;-73
2023/01/08 05:00:28;;;;;;;0.00;0.00;;;;;;;;;;1742843;28;20551;-74
2023/01/08 05:01:20;;;;;;;0.00;0.00;;;;;;;;;;1739696;28;20210;-74
2023/01/08 05:02:12;;;;;;;0.00;0.00;;;;;;;;;;1745146;28;20289;-74
2023/01/08 05:03:03;;;;;;;0.10;0.10;;;;;;;;;;1739448;28;20222;-74
2023/01/08 05:03:56;;;;;;;0.00;0.00;;;;;;;;;;1739438;28;20295;-74
2023/01/08 05:04:47;;;;;;;0.00;0.00;;;;;;;;;;1743874;28;20263;-74
2023/01/08 05:05:39;;;;;;;0.00;0.00;;;;;;;;;;1740904;28;21139;-73
2023/01/08 05:06:30;;;;;;;0.00;0.00;;;;;;;;;;1738951;28;20275;-73
2023/01/08 05:07:22;;;;;;;0.00;0.00;;;;;;;;;;1740677;28;20528;-73
2023/01/08 05:08:13;;;;;;;0.00;0.00;;;;;;;;;;1745499;28;20518;-73
2023/01/08 05:09:05;;;;;;;0.00;0.00;;;;;;;;;;1740808;28;20203;-73
2023/01/08 05:09:56;;;;;;;0.00;0.00;;;;;;;;;;1740036;28;20641;-73
2023/01/08 05:10:48;;;;;;;0.00;0.00;;;;;;;;;;1737958;28;20664;-74
2023/01/08 05:11:40;;;;;;;0.00;0.00;;;;;;;;;;1739245;28;20292;-73
2023/01/08 05:12:31;;;;;;;0.00;0.00;;;;;;;;;;1738775;28;20583;-74
2023/01/08 05:13:22;;;;;;;0.00;0.00;;;;;;;;;;1740654;28;20211;-73
2023/01/08 05:14:15;;;;;;;0.00;0.00;;;;;;;;;;1745981;28;20202;-73
2023/01/08 05:15:06;;;;;;;0.00;0.00;;;;;;;;;;1747043;28;20293;-73